sensor_id;sensor_type;location;lat;lon;timestamp;temperature;humidity
26270;DHT22;15937;50.612;6.656;2022-10-31T00:03:25;13.90;99.90
26270;DHT22;15937;50.612;6.656;2022-10-31T00:07:27;13.80;99.90
26270;DHT22;15937;50.612;6.656;2022-10-31T00:11:29;13.60;99.90
26270;DHT22;15937;50.612;6.656;2022-10-31T00:15:32;13.60;99.90
26270;DHT22;15937;50.612;6.656;2022-10-31T00:19:33;13.50;99.90
26270;DHT22;15937;50.612;6.656;2022-10-31T00:23:35;13.40;99.90
26270;DHT22;15937;50.612;6.656;2022-10-31T00:27:37;13.50;99.90
26270;DHT22;15937;50.612;6.656;2022-10-31T00:31:38;13.40;99.90
26270;DHT22;15937;50.612;6.656;2022-10-31T00:35:40;13.40;99.90
26270;DHT22;15937;50.612;6.656;2022-10-31T00:39:42;13.50;99.90
26270;DHT22;15937;50.612;6.656;2022-10-31T00:43:43;13.40;99.90
26270;DHT22;15937;50.612;6.656;2022-10-31T00:47:45;13.60;99.90
26270;DHT22;15937;50.612;6.656;2022-10-31T00:51:47;13.60;99.90
26270;DHT22;15937;50.612;6.656;2022-10-31T00:55:48;13.60;99.90
26270;DHT22;15937;50.612;6.656;2022-10-31T00:59:50;13.50;99.90
26270;DHT22;15937;50.612;6.656;2022-10-31T01:03:51;13.30;99.90
26270;DHT22;15937;50.612;6.656;2022-10-31T01:07:53;13.20;99.90
26270;DHT22;15937;50.612;6.656;2022-10-31T01:11:55;13.30;99.90
26270;DHT22;15937;50.612;6.656;2022-10-31T01:15:57;13.50;99.90
26270;DHT22;15937;50.612;6.656;2022-10-31T01:19:59;13.60;99.90
26270;DHT22;15937;50.612;6.656;2022-10-31T01:24:00;13.50;99.90
26270;DHT22;15937;50.612;6.656;2022-10-31T01:28:05;13.40;99.90
26270;DHT22;15937;50.612;6.656;2022-10-31T01:32:06;13.60;99.90
26270;DHT22;15937;50.612;6.656;2022-10-31T01:36:16;13.60;99.90
26270;DHT22;15937;50.612;6.656;2022-10-31T01:40:18;13.40;99.90
26270;DHT22;15937;50.612;6.656;2022-10-31T01:48:23;13.50;99.90
26270;DHT22;15937;50.612;6.656;2022-10-31T01:52:33;13.60;99.90
26270;DHT22;15937;50.612;6.656;2022-10-31T01:56:36;13.40;99.90
26270;DHT22;15937;50.612;6.656;2022-10-31T02:00:40;13.40;99.90
26270;DHT22;15937;50.612;6.656;2022-10-31T02:04:43;13.40;99.90
26270;DHT22;15937;50.612;6.656;2022-10-31T02:08:45;13.60;99.90
26270;DHT22;15937;50.612;6.656;2022-10-31T02:12:47;13.40;99.90
26270;DHT22;15937;50.612;6.656;2022-10-31T02:16:50;13.60;99.90
26270;DHT22;15937;50.612;6.656;2022-10-31T02:21:53;13.70;99.90
26270;DHT22;15937;50.612;6.656;2022-10-31T02:33:47;13.20;99.90
26270;DHT22;15937;50.612;6.656;2022-10-31T02:42:01;13.10;99.90
26270;DHT22;15937;50.612;6.656;2022-10-31T02:46:08;13.00;99.90
26270;DHT22;15937;50.612;6.656;2022-10-31T02:50:21;13.00;99.90
26270;DHT22;15937;50.612;6.656;2022-10-31T02:54:25;13.30;99.90
26270;DHT22;15937;50.612;6.656;2022-10-31T02:58:29;13.30;99.90
26270;DHT22;15937;50.612;6.656;2022-10-31T03:07:02;13.00;99.90
26270;DHT22;15937;50.612;6.656;2022-10-31T03:11:07;13.00;99.90
26270;DHT22;15937;50.612;6.656;2022-10-31T03:15:29;12.90;99.90
26270;DHT22;15937;50.612;6.656;2022-10-31T03:19:37;12.90;99.90
26270;DHT22;15937;50.612;6.656;2022-10-31T03:23:40;12.90;99.90
26270;DHT22;15937;50.612;6.656;2022-10-31T03:27:43;13.00;99.90
26270;DHT22;15937;50.612;6.656;2022-10-31T03:31:47;13.20;99.90
26270;DHT22;15937;50.612;6.656;2022-10-31T03:35:51;13.00;99.90
26270;DHT22;15937;50.612;6.656;2022-10-31T03:39:54;12.80;99.90
26270;DHT22;15937;50.612;6.656;2022-10-31T03:43:57;12.80;99.90
26270;DHT22;15937;50.612;6.656;2022-10-31T03:48:01;12.90;99.90
26270;DHT22;15937;50.612;6.656;2022-10-31T04:00:31;13.10;99.90
26270;DHT22;15937;50.612;6.656;2022-10-31T04:04:34;13.10;99.90
26270;DHT22;15937;50.612;6.656;2022-10-31T04:08:39;13.10;99.90
26270;DHT22;15937;50.612;6.656;2022-10-31T04:12:42;13.00;99.90
26270;DHT22;15937;50.612;6.656;2022-10-31T04:16:44;12.90;99.90
26270;DHT22;15937;50.612;6.656;2022-10-31T04:20:46;12.80;99.90
26270;DHT22;15937;50.612;6.656;2022-10-31T04:24:49;12.70;99.90
26270;DHT22;15937;50.612;6.656;2022-10-31T04:28:51;12.60;99.90
26270;DHT22;15937;50.612;6.656;2022-10-31T04:32:53;12.80;99.90
26270;DHT22;15937;50.612;6.656;2022-10-31T04:36:54;12.90;99.90
26270;DHT22;15937;50.612;6.656;2022-10-31T04:40:56;12.90;99.90
26270;DHT22;15937;50.612;6.656;2022-10-31T04:44:58;12.80;99.90
26270;DHT22;15937;50.612;6.656;2022-10-31T04:48:59;12.50;99.90
26270;DHT22;15937;50.612;6.656;2022-10-31T04:53:01;12.50;99.90
26270;DHT22;15937;50.612;6.656;2022-10-31T04:57:03;12.50;99.90
26270;DHT22;15937;50.612;6.656;2022-10-31T05:01:04;12.60;99.90
26270;DHT22;15937;50.612;6.656;2022-10-31T05:05:06;12.70;99.90
26270;DHT22;15937;50.612;6.656;2022-10-31T05:09:08;12.40;99.90
26270;DHT22;15937;50.612;6.656;2022-10-31T05:13:10;12.30;99.90
26270;DHT22;15937;50.612;6.656;2022-10-31T05:17:12;12.40;99.90
26270;DHT22;15937;50.612;6.656;2022-10-31T05:21:13;12.40;99.90
26270;DHT22;15937;50.612;6.656;2022-10-31T05:25:15;12.40;99.90
26270;DHT22;15937;50.612;6.656;2022-10-31T05:29:17;12.40;99.90
26270;DHT22;15937;50.612;6.656;2022-10-31T05:33:19;12.40;99.90
26270;DHT22;15937;50.612;6.656;2022-10-31T05:37:21;12.30;99.90
26270;DHT22;15937;50.612;6.656;2022-10-31T05:41:23;12.10;99.90
26270;DHT22;15937;50.612;6.656;2022-10-31T05:45:24;12.20;99.90
26270;DHT22;15937;50.612;6.656;2022-10-31T05:49:26;12.20;99.90
26270;DHT22;15937;50.612;6.656;2022-10-31T05:53:27;12.30;99.90
26270;DHT22;15937;50.612;6.656;2022-10-31T05:57:31;12.30;99.90
26270;DHT22;15937;50.612;6.656;2022-10-31T06:01:33;12.30;99.90
26270;DHT22;15937;50.612;6.656;2022-10-31T06:05:34;12.30;99.90
26270;DHT22;15937;50.612;6.656;2022-10-31T06:09:36;12.30;99.90
26270;DHT22;15937;50.612;6.656;2022-10-31T06:13:38;12.40;99.90
26270;DHT22;15937;50.612;6.656;2022-10-31T06:17:39;12.40;99.90
26270;DHT22;15937;50.612;6.656;2022-10-31T06:21:41;12.50;99.90
26270;DHT22;15937;50.612;6.656;2022-10-31T06:25:43;12.50;99.90
26270;DHT22;15937;50.612;6.656;2022-10-31T06:29:49;12.50;99.90
26270;DHT22;15937;50.612;6.656;2022-10-31T06:33:51;12.50;99.90
26270;DHT22;15937;50.612;6.656;2022-10-31T06:37:53;12.40;99.90
26270;DHT22;15937;50.612;6.656;2022-10-31T06:41:54;12.30;99.90
26270;DHT22;15937;50.612;6.656;2022-10-31T06:45:57;12.40;99.90
26270;DHT22;15937;50.612;6.656;2022-10-31T06:49:58;12.40;99.90
26270;DHT22;15937;50.612;6.656;2022-10-31T06:54:00;12.20;99.90
26270;DHT22;15937;50.612;6.656;2022-10-31T06:58:02;12.20;99.90
26270;DHT22;15937;50.612;6.656;2022-10-31T07:02:04;12.30;99.90
26270;DHT22;15937;50.612;6.656;2022-10-31T07:06:06;12.50;99.90
26270;DHT22;15937;50.612;6.656;2022-10-31T07:10:08;12.50;99.90
26270;DHT22;15937;50.612;6.656;2022-10-31T07:14:10;12.40;99.90
26270;DHT22;15937;50.612;6.656;2022-10-31T07:18:11;12.40;99.90
26270;DHT22;15937;50.612;6.656;2022-10-31T07:22:13;12.60;99.90
26270;DHT22;15937;50.612;6.656;2022-10-31T07:26:15;12.30;99.90
26270;DHT22;15937;50.612;6.656;2022-10-31T07:30:17;12.30;99.90
26270;DHT22;15937;50.612;6.656;2022-10-31T07:34:19;12.50;99.90
26270;DHT22;15937;50.612;6.656;2022-10-31T07:38:21;12.50;99.90
26270;DHT22;15937;50.612;6.656;2022-10-31T07:42:23;12.30;99.90
26270;DHT22;15937;50.612;6.656;2022-10-31T07:46:24;12.40;99.90
26270;DHT22;15937;50.612;6.656;2022-10-31T07:50:27;12.30;99.90
26270;DHT22;15937;50.612;6.656;2022-10-31T07:54:29;12.50;99.90
26270;DHT22;15937;50.612;6.656;2022-10-31T07:58:31;12.70;99.90
26270;DHT22;15937;50.612;6.656;2022-10-31T08:02:32;12.80;99.90
26270;DHT22;15937;50.612;6.656;2022-10-31T08:06:35;12.80;99.90
26270;DHT22;15937;50.612;6.656;2022-10-31T08:10:37;12.80;99.90
26270;DHT22;15937;50.612;6.656;2022-10-31T08:14:38;12.90;99.90
26270;DHT22;15937;50.612;6.656;2022-10-31T08:18:40;12.90;99.90
26270;DHT22;15937;50.612;6.656;2022-10-31T08:22:42;13.10;99.90
26270;DHT22;15937;50.612;6.656;2022-10-31T08:26:44;13.20;99.90
26270;DHT22;15937;50.612;6.656;2022-10-31T08:30:46;13.40;99.90
26270;DHT22;15937;50.612;6.656;2022-10-31T08:34:49;13.50;99.90
26270;DHT22;15937;50.612;6.656;2022-10-31T08:38:51;13.60;99.90
26270;DHT22;15937;50.612;6.656;2022-10-31T08:43:00;13.70;99.90
26270;DHT22;15937;50.612;6.656;2022-10-31T08:47:02;13.80;99.90
26270;DHT22;15937;50.612;6.656;2022-10-31T08:51:05;13.90;99.90
26270;DHT22;15937;50.612;6.656;2022-10-31T08:55:08;13.90;99.90
26270;DHT22;15937;50.612;6.656;2022-10-31T08:59:10;14.10;99.90
26270;DHT22;15937;50.612;6.656;2022-10-31T09:03:16;14.10;99.90
26270;DHT22;15937;50.612;6.656;2022-10-31T09:07:17;14.30;99.90
26270;DHT22;15937;50.612;6.656;2022-10-31T09:11:21;14.50;99.90
26270;DHT22;15937;50.612;6.656;2022-10-31T09:15:23;14.60;99.90
26270;DHT22;15937;50.612;6.656;2022-10-31T09:19:26;14.60;99.90
26270;DHT22;15937;50.612;6.656;2022-10-31T09:23:28;14.80;99.90
26270;DHT22;15937;50.612;6.656;2022-10-31T09:27:30;14.90;99.90
26270;DHT22;15937;50.612;6.656;2022-10-31T09:31:32;15.20;99.90
26270;DHT22;15937;50.612;6.656;2022-10-31T09:35:34;15.30;99.90
26270;DHT22;15937;50.612;6.656;2022-10-31T09:39:37;15.50;99.90
26270;DHT22;15937;50.612;6.656;2022-10-31T09:52:01;15.80;99.90
26270;DHT22;15937;50.612;6.656;2022-10-31T09:56:10;15.90;99.90
26270;DHT22;15937;50.612;6.656;2022-10-31T10:00:16;16.00;99.90
26270;DHT22;15937;50.612;6.656;2022-10-31T10:04:25;16.20;99.90
26270;DHT22;15937;50.612;6.656;2022-10-31T10:08:30;16.30;99.90
26270;DHT22;15937;50.612;6.656;2022-10-31T10:12:37;16.40;99.90
26270;DHT22;15937;50.612;6.656;2022-10-31T10:25:09;16.60;99.90
26270;DHT22;15937;50.612;6.656;2022-10-31T10:33:35;16.80;99.90
26270;DHT22;15937;50.612;6.656;2022-10-31T10:37:39;16.80;99.90
26270;DHT22;15937;50.612;6.656;2022-10-31T10:50:22;17.00;99.90
26270;DHT22;15937;50.612;6.656;2022-10-31T10:54:36;17.00;99.90
26270;DHT22;15937;50.612;6.656;2022-10-31T10:58:40;17.00;99.90
26270;DHT22;15937;50.612;6.656;2022-10-31T11:02:44;17.10;99.90
26270;DHT22;15937;50.612;6.656;2022-10-31T11:11:23;17.30;99.90
26270;DHT22;15937;50.612;6.656;2022-10-31T11:15:27;17.30;99.90
26270;DHT22;15937;50.612;6.656;2022-10-31T11:19:29;17.30;99.90
26270;DHT22;15937;50.612;6.656;2022-10-31T11:23:31;17.40;99.90
26270;DHT22;15937;50.612;6.656;2022-10-31T11:27:33;17.50;99.90
26270;DHT22;15937;50.612;6.656;2022-10-31T11:31:34;17.60;99.90
26270;DHT22;15937;50.612;6.656;2022-10-31T11:35:38;17.60;99.90
26270;DHT22;15937;50.612;6.656;2022-10-31T11:39:41;17.70;99.90
26270;DHT22;15937;50.612;6.656;2022-10-31T11:43:57;17.70;99.90
26270;DHT22;15937;50.612;6.656;2022-10-31T11:48:01;17.70;99.90
26270;DHT22;15937;50.612;6.656;2022-10-31T11:56:15;17.90;99.90
26270;DHT22;15937;50.612;6.656;2022-10-31T12:00:37;18.00;99.90
26270;DHT22;15937;50.612;6.656;2022-10-31T12:04:43;18.10;99.90
26270;DHT22;15937;50.612;6.656;2022-10-31T12:08:47;18.20;99.90
26270;DHT22;15937;50.612;6.656;2022-10-31T12:17:03;18.30;99.90
26270;DHT22;15937;50.612;6.656;2022-10-31T12:21:21;18.30;99.90
26270;DHT22;15937;50.612;6.656;2022-10-31T12:33:54;18.50;99.90
26270;DHT22;15937;50.612;6.656;2022-10-31T12:42:23;18.50;99.90
26270;DHT22;15937;50.612;6.656;2022-10-31T12:54:54;18.40;99.90
26270;DHT22;15937;50.612;6.656;2022-10-31T13:03:25;18.40;99.90
26270;DHT22;15937;50.612;6.656;2022-10-31T13:07:36;18.40;99.90
26270;DHT22;15937;50.612;6.656;2022-10-31T13:11:43;18.40;99.90
26270;DHT22;15937;50.612;6.656;2022-10-31T13:19:53;18.40;99.90
26270;DHT22;15937;50.612;6.656;2022-10-31T13:23:57;18.40;99.90
26270;DHT22;15937;50.612;6.656;2022-10-31T13:28:05;18.60;99.90
26270;DHT22;15937;50.612;6.656;2022-10-31T13:32:11;18.60;99.90
26270;DHT22;15937;50.612;6.656;2022-10-31T13:40:32;18.80;99.90
26270;DHT22;15937;50.612;6.656;2022-10-31T13:44:36;18.80;99.90
26270;DHT22;15937;50.612;6.656;2022-10-31T13:48:39;18.80;99.90
26270;DHT22;15937;50.612;6.656;2022-10-31T13:52:47;18.80;99.90
26270;DHT22;15937;50.612;6.656;2022-10-31T13:56:49;18.80;99.90
26270;DHT22;15937;50.612;6.656;2022-10-31T14:01:04;18.80;99.90
26270;DHT22;15937;50.612;6.656;2022-10-31T14:05:26;18.80;99.90
26270;DHT22;15937;50.612;6.656;2022-10-31T14:09:31;18.80;99.90
26270;DHT22;15937;50.612;6.656;2022-10-31T14:13:38;18.80;99.90
26270;DHT22;15937;50.612;6.656;2022-10-31T14:17:54;18.80;99.90
26270;DHT22;15937;50.612;6.656;2022-10-31T14:21:57;18.80;99.90
26270;DHT22;15937;50.612;6.656;2022-10-31T14:26:33;18.90;99.90
26270;DHT22;15937;50.612;6.656;2022-10-31T14:30:30;18.90;99.90
26270;DHT22;15937;50.612;6.656;2022-10-31T14:43:10;19.00;99.90
26270;DHT22;15937;50.612;6.656;2022-10-31T14:47:31;19.00;99.90
26270;DHT22;15937;50.612;6.656;2022-10-31T14:51:38;18.90;99.90
26270;DHT22;15937;50.612;6.656;2022-10-31T14:55:45;18.80;99.90
26270;DHT22;15937;50.612;6.656;2022-10-31T14:59:50;18.80;99.90
26270;DHT22;15937;50.612;6.656;2022-10-31T15:03:52;18.80;99.90
26270;DHT22;15937;50.612;6.656;2022-10-31T15:12:35;18.80;99.90
26270;DHT22;15937;50.612;6.656;2022-10-31T15:16:42;18.80;99.90
26270;DHT22;15937;50.612;6.656;2022-10-31T15:21:05;18.80;99.90
26270;DHT22;15937;50.612;6.656;2022-10-31T15:25:17;18.70;99.90
26270;DHT22;15937;50.612;6.656;2022-10-31T15:29:20;18.50;99.90
26270;DHT22;15937;50.612;6.656;2022-10-31T15:33:26;18.40;99.90
26270;DHT22;15937;50.612;6.656;2022-10-31T15:37:34;18.30;99.90
26270;DHT22;15937;50.612;6.656;2022-10-31T15:41:46;18.20;99.90
26270;DHT22;15937;50.612;6.656;2022-10-31T15:45:55;18.00;99.90
26270;DHT22;15937;50.612;6.656;2022-10-31T15:49:57;18.00;99.90
26270;DHT22;15937;50.612;6.656;2022-10-31T15:53:59;17.90;99.90
26270;DHT22;15937;50.612;6.656;2022-10-31T15:58:03;17.80;99.90
26270;DHT22;15937;50.612;6.656;2022-10-31T16:02:10;17.70;99.90
26270;DHT22;15937;50.612;6.656;2022-10-31T16:06:19;17.60;99.90
26270;DHT22;15937;50.612;6.656;2022-10-31T16:10:22;17.50;99.90
26270;DHT22;15937;50.612;6.656;2022-10-31T16:14:26;17.50;99.90
26270;DHT22;15937;50.612;6.656;2022-10-31T16:18:28;17.40;99.90
26270;DHT22;15937;50.612;6.656;2022-10-31T16:22:31;17.30;99.90
26270;DHT22;15937;50.612;6.656;2022-10-31T16:26:34;17.20;99.90
26270;DHT22;15937;50.612;6.656;2022-10-31T16:30:37;17.10;99.90
26270;DHT22;15937;50.612;6.656;2022-10-31T16:34:56;17.10;99.90
26270;DHT22;15937;50.612;6.656;2022-10-31T16:38:58;17.00;99.90
26270;DHT22;15937;50.612;6.656;2022-10-31T16:43:00;17.00;99.90
26270;DHT22;15937;50.612;6.656;2022-10-31T16:47:12;17.10;99.90
26270;DHT22;15937;50.612;6.656;2022-10-31T16:51:14;17.10;99.90
26270;DHT22;15937;50.612;6.656;2022-10-31T16:55:17;17.10;99.90
26270;DHT22;15937;50.612;6.656;2022-10-31T16:59:20;17.00;99.90
26270;DHT22;15937;50.612;6.656;2022-10-31T17:03:22;16.90;99.90
26270;DHT22;15937;50.612;6.656;2022-10-31T17:07:23;16.90;99.90
26270;DHT22;15937;50.612;6.656;2022-10-31T17:11:25;16.80;99.90
26270;DHT22;15937;50.612;6.656;2022-10-31T17:15:27;16.80;99.90
26270;DHT22;15937;50.612;6.656;2022-10-31T17:19:29;16.80;99.90
26270;DHT22;15937;50.612;6.656;2022-10-31T17:23:31;16.80;99.90
26270;DHT22;15937;50.612;6.656;2022-10-31T17:27:33;16.80;99.90
26270;DHT22;15937;50.612;6.656;2022-10-31T17:31:36;16.80;99.90
26270;DHT22;15937;50.612;6.656;2022-10-31T17:35:43;16.80;99.90
26270;DHT22;15937;50.612;6.656;2022-10-31T17:39:45;16.80;99.90
26270;DHT22;15937;50.612;6.656;2022-10-31T17:43:47;16.70;99.90
26270;DHT22;15937;50.612;6.656;2022-10-31T17:47:49;16.70;99.90
26270;DHT22;15937;50.612;6.656;2022-10-31T17:51:55;16.70;99.90
26270;DHT22;15937;50.612;6.656;2022-10-31T17:56:03;16.70;99.90
26270;DHT22;15937;50.612;6.656;2022-10-31T18:00:07;16.70;99.90
26270;DHT22;15937;50.612;6.656;2022-10-31T18:04:09;16.70;99.90
26270;DHT22;15937;50.612;6.656;2022-10-31T18:08:10;16.70;99.90
26270;DHT22;15937;50.612;6.656;2022-10-31T18:12:13;16.60;99.90
26270;DHT22;15937;50.612;6.656;2022-10-31T18:16:15;16.50;99.90
26270;DHT22;15937;50.612;6.656;2022-10-31T18:20:17;16.50;99.90
26270;DHT22;15937;50.612;6.656;2022-10-31T18:24:19;16.60;99.90
26270;DHT22;15937;50.612;6.656;2022-10-31T18:28:21;16.60;99.90
26270;DHT22;15937;50.612;6.656;2022-10-31T18:32:23;16.60;99.90
26270;DHT22;15937;50.612;6.656;2022-10-31T18:36:25;16.60;99.90
26270;DHT22;15937;50.612;6.656;2022-10-31T18:40:28;16.70;99.90
26270;DHT22;15937;50.612;6.656;2022-10-31T18:44:30;16.70;99.90
26270;DHT22;15937;50.612;6.656;2022-10-31T18:48:32;16.60;99.90
26270;DHT22;15937;50.612;6.656;2022-10-31T18:52:34;16.60;99.90
26270;DHT22;15937;50.612;6.656;2022-10-31T18:56:36;16.60;99.90
26270;DHT22;15937;50.612;6.656;2022-10-31T19:00:38;16.50;99.90
26270;DHT22;15937;50.612;6.656;2022-10-31T19:04:40;16.50;99.90
26270;DHT22;15937;50.612;6.656;2022-10-31T19:08:46;16.50;99.90
26270;DHT22;15937;50.612;6.656;2022-10-31T19:12:48;16.50;99.90
26270;DHT22;15937;50.612;6.656;2022-10-31T19:16:50;16.50;99.90
26270;DHT22;15937;50.612;6.656;2022-10-31T19:20:55;16.40;99.90
26270;DHT22;15937;50.612;6.656;2022-10-31T19:24:57;16.40;99.90
26270;DHT22;15937;50.612;6.656;2022-10-31T19:28:58;16.40;99.90
26270;DHT22;15937;50.612;6.656;2022-10-31T19:33:00;16.40;99.90
26270;DHT22;15937;50.612;6.656;2022-10-31T19:37:02;16.40;99.90
26270;DHT22;15937;50.612;6.656;2022-10-31T19:41:05;16.30;99.90
26270;DHT22;15937;50.612;6.656;2022-10-31T19:45:07;16.30;99.90
26270;DHT22;15937;50.612;6.656;2022-10-31T19:49:09;16.40;99.90
26270;DHT22;15937;50.612;6.656;2022-10-31T19:53:13;16.40;99.90
26270;DHT22;15937;50.612;6.656;2022-10-31T19:57:14;16.30;99.90
26270;DHT22;15937;50.612;6.656;2022-10-31T20:01:18;16.30;99.90
26270;DHT22;15937;50.612;6.656;2022-10-31T20:05:20;16.30;99.90
26270;DHT22;15937;50.612;6.656;2022-10-31T20:09:21;16.30;99.90
26270;DHT22;15937;50.612;6.656;2022-10-31T20:13:23;16.30;99.90
26270;DHT22;15937;50.612;6.656;2022-10-31T20:17:26;16.40;99.90
26270;DHT22;15937;50.612;6.656;2022-10-31T20:21:29;16.40;99.90
26270;DHT22;15937;50.612;6.656;2022-10-31T20:25:31;16.30;99.90
26270;DHT22;15937;50.612;6.656;2022-10-31T20:29:33;16.40;99.90
26270;DHT22;15937;50.612;6.656;2022-10-31T20:33:35;16.40;99.90
26270;DHT22;15937;50.612;6.656;2022-10-31T20:37:37;16.50;99.90
26270;DHT22;15937;50.612;6.656;2022-10-31T20:41:38;16.60;99.90
26270;DHT22;15937;50.612;6.656;2022-10-31T20:45:40;16.60;99.90
26270;DHT22;15937;50.612;6.656;2022-10-31T20:49:42;16.60;99.90
26270;DHT22;15937;50.612;6.656;2022-10-31T20:53:44;16.60;99.90
26270;DHT22;15937;50.612;6.656;2022-10-31T20:57:46;16.50;99.90
26270;DHT22;15937;50.612;6.656;2022-10-31T21:01:47;16.50;99.90
26270;DHT22;15937;50.612;6.656;2022-10-31T21:05:51;16.50;99.90
26270;DHT22;15937;50.612;6.656;2022-10-31T21:09:52;16.50;99.90
26270;DHT22;15937;50.612;6.656;2022-10-31T21:13:54;16.40;99.90
26270;DHT22;15937;50.612;6.656;2022-10-31T21:17:56;16.40;99.90
26270;DHT22;15937;50.612;6.656;2022-10-31T21:21:58;16.50;99.90
26270;DHT22;15937;50.612;6.656;2022-10-31T21:26:03;16.60;99.90
26270;DHT22;15937;50.612;6.656;2022-10-31T21:30:06;16.60;99.90
26270;DHT22;15937;50.612;6.656;2022-10-31T21:34:07;16.50;99.90
26270;DHT22;15937;50.612;6.656;2022-10-31T21:38:10;16.60;99.90
26270;DHT22;15937;50.612;6.656;2022-10-31T21:42:11;16.50;99.90
26270;DHT22;15937;50.612;6.656;2022-10-31T21:46:22;16.50;99.90
26270;DHT22;15937;50.612;6.656;2022-10-31T21:50:24;16.50;99.90
26270;DHT22;15937;50.612;6.656;2022-10-31T21:54:26;16.50;99.90
26270;DHT22;15937;50.612;6.656;2022-10-31T21:58:28;16.60;99.90
26270;DHT22;15937;50.612;6.656;2022-10-31T22:02:36;16.60;99.90
26270;DHT22;15937;50.612;6.656;2022-10-31T22:06:39;16.60;99.90
26270;DHT22;15937;50.612;6.656;2022-10-31T22:10:41;16.60;99.90
26270;DHT22;15937;50.612;6.656;2022-10-31T22:14:43;16.70;99.90
26270;DHT22;15937;50.612;6.656;2022-10-31T22:18:45;16.70;99.90
26270;DHT22;15937;50.612;6.656;2022-10-31T22:22:47;16.70;99.90
26270;DHT22;15937;50.612;6.656;2022-10-31T22:26:49;16.70;99.90
26270;DHT22;15937;50.612;6.656;2022-10-31T22:30:51;16.80;99.90
26270;DHT22;15937;50.612;6.656;2022-10-31T22:34:52;16.70;99.90
26270;DHT22;15937;50.612;6.656;2022-10-31T22:38:54;16.80;99.90
26270;DHT22;15937;50.612;6.656;2022-10-31T22:47:22;16.80;99.90
26270;DHT22;15937;50.612;6.656;2022-10-31T22:51:33;16.80;99.90
26270;DHT22;15937;50.612;6.656;2022-10-31T22:55:35;16.80;99.90
26270;DHT22;15937;50.612;6.656;2022-10-31T22:59:38;16.80;99.90
26270;DHT22;15937;50.612;6.656;2022-10-31T23:03:40;16.80;99.90
26270;DHT22;15937;50.612;6.656;2022-10-31T23:07:42;16.90;99.90
26270;DHT22;15937;50.612;6.656;2022-10-31T23:11:44;17.00;99.90
26270;DHT22;15937;50.612;6.656;2022-10-31T23:15:45;17.00;99.90
26270;DHT22;15937;50.612;6.656;2022-10-31T23:19:47;17.00;99.90
26270;DHT22;15937;50.612;6.656;2022-10-31T23:23:49;17.00;99.90
26270;DHT22;15937;50.612;6.656;2022-10-31T23:27:50;16.90;99.90
26270;DHT22;15937;50.612;6.656;2022-10-31T23:31:52;16.90;99.90
26270;DHT22;15937;50.612;6.656;2022-10-31T23:35:55;16.90;99.90
26270;DHT22;15937;50.612;6.656;2022-10-31T23:39:56;16.90;99.90
26270;DHT22;15937;50.612;6.656;2022-10-31T23:43:59;16.90;99.90
26270;DHT22;15937;50.612;6.656;2022-10-31T23:48:01;16.80;99.90
26270;DHT22;15937;50.612;6.656;2022-10-31T23:52:03;16.80;99.90
26270;DHT22;15937;50.612;6.656;2022-10-31T23:56:05;16.80;99.90
